sensor_id;sensor_type;location;lat;lon;timestamp;pressure;altitude;pressure_sealevel;temperature;humidity
51081;BME280;37130;55.670;37.596;2022-10-22T00:00:10;99952.69;;;6.54;79.23
51081;BME280;37130;55.670;37.596;2022-10-22T00:02:38;99958.00;;;6.52;79.28
51081;BME280;37130;55.670;37.596;2022-10-22T00:05:05;99950.13;;;6.52;78.75
51081;BME280;37130;55.670;37.596;2022-10-22T00:07:32;99958.91;;;6.51;79.29
51081;BME280;37130;55.670;37.596;2022-10-22T00:09:59;99956.25;;;6.51;79.49
51081;BME280;37130;55.670;37.596;2022-10-22T00:12:27;99947.50;;;6.51;79.65
51081;BME280;37130;55.670;37.596;2022-10-22T00:14:54;99951.91;;;6.50;79.59
51081;BME280;37130;55.670;37.596;2022-10-22T00:17:21;99949.31;;;6.49;79.04
51081;BME280;37130;55.670;37.596;2022-10-22T00:19:48;99951.06;;;6.50;79.75
51081;BME280;37130;55.670;37.596;2022-10-22T00:22:15;99945.81;;;6.50;79.06
51081;BME280;37130;55.670;37.596;2022-10-22T00:24:42;99950.16;;;6.49;79.53
51081;BME280;37130;55.670;37.596;2022-10-22T00:27:10;99952.78;;;6.51;79.68
51081;BME280;37130;55.670;37.596;2022-10-22T00:29:37;99943.97;;;6.52;79.74
51081;BME280;37130;55.670;37.596;2022-10-22T00:32:04;99937.84;;;6.51;79.66
51081;BME280;37130;55.670;37.596;2022-10-22T00:34:31;99941.34;;;6.52;79.32
51081;BME280;37130;55.670;37.596;2022-10-22T00:36:58;99937.00;;;6.51;79.67
51081;BME280;37130;55.670;37.596;2022-10-22T00:39:26;99940.53;;;6.50;79.73
51081;BME280;37130;55.670;37.596;2022-10-22T00:41:53;99937.94;;;6.48;79.49
51081;BME280;37130;55.670;37.596;2022-10-22T00:47:06;99934.47;;;6.46;80.08
51081;BME280;37130;55.670;37.596;2022-10-22T00:49:33;99930.91;;;6.49;79.54
51081;BME280;37130;55.670;37.596;2022-10-22T00:52:00;99935.28;;;6.50;80.07
51081;BME280;37130;55.670;37.596;2022-10-22T00:54:27;99934.44;;;6.48;80.14
51081;BME280;37130;55.670;37.596;2022-10-22T00:56:54;99938.88;;;6.46;79.67
51081;BME280;37130;55.670;37.596;2022-10-22T00:59:21;99938.78;;;6.49;79.97
51081;BME280;37130;55.670;37.596;2022-10-22T01:01:48;99937.00;;;6.49;80.08
51081;BME280;37130;55.670;37.596;2022-10-22T01:04:15;99935.22;;;6.51;79.20
51081;BME280;37130;55.670;37.596;2022-10-22T01:06:43;99935.19;;;6.53;79.82
51081;BME280;37130;55.670;37.596;2022-10-22T01:19:27;99932.50;;;6.54;79.40
51081;BME280;37130;55.670;37.596;2022-10-22T01:21:57;99935.97;;;6.56;79.63
51081;BME280;37130;55.670;37.596;2022-10-22T01:27:02;99930.63;;;6.59;79.59
51081;BME280;37130;55.670;37.596;2022-10-22T01:29:40;99930.63;;;6.59;79.46
51081;BME280;37130;55.670;37.596;2022-10-22T01:32:18;99938.47;;;6.61;80.00
51081;BME280;37130;55.670;37.596;2022-10-22T01:34:47;99853.84;;;6.11;79.52
51081;BME280;37130;55.670;37.596;2022-10-22T01:37:15;99937.69;;;6.57;79.75
51081;BME280;37130;55.670;37.596;2022-10-22T01:39:44;99950.03;;;6.55;79.60
51081;BME280;37130;55.670;37.596;2022-10-22T01:42:13;99944.88;;;6.51;79.94
51081;BME280;37130;55.670;37.596;2022-10-22T01:44:40;99944.06;;;6.49;79.50
51081;BME280;37130;55.670;37.596;2022-10-22T02:00:37;99951.00;;;6.51;80.26
51081;BME280;37130;55.670;37.596;2022-10-22T02:03:09;99950.06;;;6.54;79.82
51081;BME280;37130;55.670;37.596;2022-10-22T02:08:10;99945.56;;;6.57;80.18
51081;BME280;37130;55.670;37.596;2022-10-22T02:10:38;99948.19;;;6.59;79.52
51081;BME280;37130;55.670;37.596;2022-10-22T02:13:11;99942.94;;;6.57;80.16
51081;BME280;37130;55.670;37.596;2022-10-22T02:15:39;99946.47;;;6.58;80.02
51081;BME280;37130;55.670;37.596;2022-10-22T02:18:09;99949.91;;;6.60;80.28
51081;BME280;37130;55.670;37.596;2022-10-22T02:20:37;99959.53;;;6.61;79.67
51081;BME280;37130;55.670;37.596;2022-10-22T02:23:05;99960.41;;;6.62;80.01
51081;BME280;37130;55.670;37.596;2022-10-22T02:25:33;99959.53;;;6.61;79.83
51081;BME280;37130;55.670;37.596;2022-10-22T02:28:03;99966.50;;;6.62;79.60
51081;BME280;37130;55.670;37.596;2022-10-22T02:30:36;99957.75;;;6.63;79.64
51081;BME280;37130;55.670;37.596;2022-10-22T02:33:08;99956.81;;;6.64;80.06
51081;BME280;37130;55.670;37.596;2022-10-22T02:35:37;99957.69;;;6.65;79.78
51081;BME280;37130;55.670;37.596;2022-10-22T02:38:06;99956.81;;;6.64;80.08
51081;BME280;37130;55.670;37.596;2022-10-22T02:40:33;99962.91;;;6.66;79.80
51081;BME280;37130;55.670;37.596;2022-10-22T02:43:02;99954.06;;;6.69;79.98
51081;BME280;37130;55.670;37.596;2022-10-22T02:45:29;99959.38;;;6.67;79.59
51081;BME280;37130;55.670;37.596;2022-10-22T02:47:56;99961.97;;;6.69;79.56
51081;BME280;37130;55.670;37.596;2022-10-22T02:50:23;99962.91;;;6.66;79.62
51081;BME280;37130;55.670;37.596;2022-10-22T02:52:50;99957.66;;;6.66;79.59
51081;BME280;37130;55.670;37.596;2022-10-22T02:55:17;99961.16;;;6.65;79.88
51081;BME280;37130;55.670;37.596;2022-10-22T02:57:44;99961.25;;;6.62;79.57
51081;BME280;37130;55.670;37.596;2022-10-22T03:00:11;99965.69;;;6.60;79.80
51081;BME280;37130;55.670;37.596;2022-10-22T03:02:38;99965.81;;;6.55;79.91
51081;BME280;37130;55.670;37.596;2022-10-22T03:05:05;99968.47;;;6.55;80.09
51081;BME280;37130;55.670;37.596;2022-10-22T03:07:32;99969.41;;;6.53;80.07
51081;BME280;37130;55.670;37.596;2022-10-22T03:10:00;99971.13;;;6.54;80.17
51081;BME280;37130;55.670;37.596;2022-10-22T03:12:29;99969.34;;;6.54;80.18
51081;BME280;37130;55.670;37.596;2022-10-22T03:14:56;99964.97;;;6.55;80.03
51081;BME280;37130;55.670;37.596;2022-10-22T03:17:23;99968.47;;;6.54;79.67
51081;BME280;37130;55.670;37.596;2022-10-22T03:19:50;99970.19;;;6.56;79.71
51081;BME280;37130;55.670;37.596;2022-10-22T03:22:19;99964.00;;;6.57;79.89
51081;BME280;37130;55.670;37.596;2022-10-22T03:24:48;99960.56;;;6.55;79.98
51081;BME280;37130;55.670;37.596;2022-10-22T03:27:17;99969.34;;;6.54;80.15
51081;BME280;37130;55.670;37.596;2022-10-22T03:29:46;99962.34;;;6.53;80.07
51081;BME280;37130;55.670;37.596;2022-10-22T03:32:15;99956.31;;;6.50;79.40
51081;BME280;37130;55.670;37.596;2022-10-22T03:34:42;99960.75;;;6.48;79.97
51081;BME280;37130;55.670;37.596;2022-10-22T03:37:09;99967.72;;;6.49;80.11
51081;BME280;37130;55.670;37.596;2022-10-22T03:39:36;99960.78;;;6.46;80.21
51081;BME280;37130;55.670;37.596;2022-10-22T03:42:03;99966.84;;;6.50;79.86
51081;BME280;37130;55.670;37.596;2022-10-22T03:44:31;99965.84;;;6.54;80.07
51081;BME280;37130;55.670;37.596;2022-10-22T03:46:58;99963.13;;;6.57;80.14
51081;BME280;37130;55.670;37.596;2022-10-22T03:49:28;99881.16;;;6.05;79.68
51081;BME280;37130;55.670;37.596;2022-10-22T03:51:55;99965.66;;;6.62;80.00
51081;BME280;37130;55.670;37.596;2022-10-22T03:54:22;99970.00;;;6.63;79.57
51081;BME280;37130;55.670;37.596;2022-10-22T03:56:49;99956.00;;;6.62;79.73
51081;BME280;37130;55.670;37.596;2022-10-22T03:59:16;99970.91;;;6.63;80.03
51081;BME280;37130;55.670;37.596;2022-10-22T04:01:43;99878.38;;;6.10;79.84
51081;BME280;37130;55.670;37.596;2022-10-22T04:04:10;99968.25;;;6.63;80.04
51081;BME280;37130;55.670;37.596;2022-10-22T04:06:37;99966.50;;;6.64;80.15
51081;BME280;37130;55.670;37.596;2022-10-22T04:09:04;99969.06;;;6.65;80.12
51081;BME280;37130;55.670;37.596;2022-10-22T04:11:31;99969.97;;;6.66;79.63
51081;BME280;37130;55.670;37.596;2022-10-22T04:13:58;99962.94;;;6.65;80.15
51081;BME280;37130;55.670;37.596;2022-10-22T04:16:25;99969.06;;;6.65;79.84
51081;BME280;37130;55.670;37.596;2022-10-22T04:18:56;99961.25;;;6.62;79.59
51081;BME280;37130;55.670;37.596;2022-10-22T04:21:24;99961.25;;;6.62;79.63
51081;BME280;37130;55.670;37.596;2022-10-22T04:23:51;99969.97;;;6.64;80.25
51081;BME280;37130;55.670;37.596;2022-10-22T04:26:18;99959.53;;;6.61;79.83
51081;BME280;37130;55.670;37.596;2022-10-22T04:28:46;99963.94;;;6.61;80.05
51081;BME280;37130;55.670;37.596;2022-10-22T04:31:15;99966.56;;;6.61;79.57
51081;BME280;37130;55.670;37.596;2022-10-22T04:33:43;99964.81;;;6.61;79.73
51081;BME280;37130;55.670;37.596;2022-10-22T04:36:12;99966.44;;;6.65;79.72
51081;BME280;37130;55.670;37.596;2022-10-22T04:38:40;99972.50;;;6.69;79.71
51081;BME280;37130;55.670;37.596;2022-10-22T04:41:11;99971.47;;;6.74;79.65
51081;BME280;37130;55.670;37.596;2022-10-22T04:43:38;99970.47;;;6.78;79.98
51081;BME280;37130;55.670;37.596;2022-10-22T04:46:06;99961.63;;;6.81;79.58
51081;BME280;37130;55.670;37.596;2022-10-22T04:48:35;99970.34;;;6.83;79.93
51081;BME280;37130;55.670;37.596;2022-10-22T04:51:02;99973.00;;;6.83;79.66
51081;BME280;37130;55.670;37.596;2022-10-22T04:53:29;99979.09;;;6.85;80.00
51081;BME280;37130;55.670;37.596;2022-10-22T04:56:12;99977.22;;;6.89;80.00
51081;BME280;37130;55.670;37.596;2022-10-22T04:58:42;99977.22;;;6.89;79.69
51081;BME280;37130;55.670;37.596;2022-10-22T05:03:37;99981.75;;;6.84;79.02
51081;BME280;37130;55.670;37.596;2022-10-22T05:06:04;99980.94;;;6.82;79.26
51081;BME280;37130;55.670;37.596;2022-10-22T05:08:31;99984.47;;;6.80;79.22
51081;BME280;37130;55.670;37.596;2022-10-22T05:10:58;99982.75;;;6.79;79.14
51081;BME280;37130;55.670;37.596;2022-10-22T05:13:25;99986.25;;;6.78;79.30
51081;BME280;37130;55.670;37.596;2022-10-22T05:15:53;99985.38;;;6.79;79.60
51081;BME280;37130;55.670;37.596;2022-10-22T05:18:20;99991.38;;;6.85;79.09
51081;BME280;37130;55.670;37.596;2022-10-22T05:20:48;99986.88;;;6.90;79.15
51081;BME280;37130;55.670;37.596;2022-10-22T05:23:15;99989.38;;;6.94;79.35
51081;BME280;37130;55.670;37.596;2022-10-22T05:25:42;99983.09;;;7.00;79.09
51081;BME280;37130;55.670;37.596;2022-10-22T05:28:09;99988.94;;;7.10;79.32
51081;BME280;37130;55.670;37.596;2022-10-22T05:30:36;99986.06;;;7.20;79.42
51081;BME280;37130;55.670;37.596;2022-10-22T05:33:03;99991.06;;;7.30;79.30
51081;BME280;37130;55.670;37.596;2022-10-22T05:35:30;99987.34;;;7.37;79.04
51081;BME280;37130;55.670;37.596;2022-10-22T05:37:57;99994.25;;;7.41;79.01
51081;BME280;37130;55.670;37.596;2022-10-22T05:40:24;99997.50;;;7.49;78.75
51081;BME280;37130;55.670;37.596;2022-10-22T05:42:57;99987.69;;;7.56;78.73
51081;BME280;37130;55.670;37.596;2022-10-22T05:45:24;99994.50;;;7.63;78.87
51081;BME280;37130;55.670;37.596;2022-10-22T05:47:51;99999.56;;;7.71;78.95
51081;BME280;37130;55.670;37.596;2022-10-22T05:50:18;99997.59;;;7.77;78.83
51081;BME280;37130;55.670;37.596;2022-10-22T05:52:45;100001.88;;;7.81;78.50
51081;BME280;37130;55.670;37.596;2022-10-22T05:55:12;100005.38;;;7.82;78.67
51081;BME280;37130;55.670;37.596;2022-10-22T05:57:39;100002.63;;;7.85;78.78
51081;BME280;37130;55.670;37.596;2022-10-22T06:00:06;100007.06;;;7.83;78.77
51081;BME280;37130;55.670;37.596;2022-10-22T06:02:38;100005.28;;;7.85;78.60
51081;BME280;37130;55.670;37.596;2022-10-22T06:05:05;100008.75;;;7.85;78.62
51081;BME280;37130;55.670;37.596;2022-10-22T06:07:32;100004.28;;;7.89;78.64
51081;BME280;37130;55.670;37.596;2022-10-22T06:10:00;100004.13;;;7.94;78.64
51081;BME280;37130;55.670;37.596;2022-10-22T06:12:28;100000.63;;;7.93;78.47
51081;BME280;37130;55.670;37.596;2022-10-22T06:14:55;100004.91;;;7.97;78.40
51081;BME280;37130;55.670;37.596;2022-10-22T06:17:22;100009.03;;;8.06;78.29
51081;BME280;37130;55.670;37.596;2022-10-22T06:19:49;100004.38;;;8.14;78.18
51081;BME280;37130;55.670;37.596;2022-10-22T06:22:16;99999.88;;;8.18;77.91
51081;BME280;37130;55.670;37.596;2022-10-22T06:24:43;100009.50;;;8.19;77.78
51081;BME280;37130;55.670;37.596;2022-10-22T06:27:10;100002.47;;;8.19;78.07
51081;BME280;37130;55.670;37.596;2022-10-22T06:29:37;100005.94;;;8.20;77.73
51081;BME280;37130;55.670;37.596;2022-10-22T06:32:04;100001.41;;;8.25;77.70
51081;BME280;37130;55.670;37.596;2022-10-22T06:34:31;100009.25;;;8.28;78.02
51081;BME280;37130;55.670;37.596;2022-10-22T06:36:58;100011.81;;;8.29;77.54
51081;BME280;37130;55.670;37.596;2022-10-22T06:39:25;100018.81;;;8.30;77.40
51081;BME280;37130;55.670;37.596;2022-10-22T06:41:53;100019.63;;;8.32;77.40
51081;BME280;37130;55.670;37.596;2022-10-22T06:44:20;100018.81;;;8.30;77.24
51081;BME280;37130;55.670;37.596;2022-10-22T06:46:48;100021.50;;;8.29;77.21
51081;BME280;37130;55.670;37.596;2022-10-22T06:49:15;100023.94;;;8.35;77.53
51081;BME280;37130;55.670;37.596;2022-10-22T06:51:42;100021.16;;;8.41;77.13
51081;BME280;37130;55.670;37.596;2022-10-22T06:54:10;100026.28;;;8.46;76.97
51081;BME280;37130;55.670;37.596;2022-10-22T06:56:37;100018.34;;;8.46;77.06
51081;BME280;37130;55.670;37.596;2022-10-22T06:59:04;100027.88;;;8.51;76.88
51081;BME280;37130;55.670;37.596;2022-10-22T07:01:32;100026.00;;;8.55;76.87
51081;BME280;37130;55.670;37.596;2022-10-22T07:03:59;100027.47;;;8.64;76.59
51081;BME280;37130;55.670;37.596;2022-10-22T07:06:27;100028.75;;;8.78;76.66
51081;BME280;37130;55.670;37.596;2022-10-22T07:08:54;100039.66;;;8.94;76.30
51081;BME280;37130;55.670;37.596;2022-10-22T07:11:23;100032.91;;;9.11;75.90
51081;BME280;37130;55.670;37.596;2022-10-22T07:13:50;100024.63;;;9.21;75.30
51081;BME280;37130;55.670;37.596;2022-10-22T07:16:19;100036.69;;;9.29;75.00
51081;BME280;37130;55.670;37.596;2022-10-22T07:18:46;100033.09;;;9.31;75.59
51081;BME280;37130;55.670;37.596;2022-10-22T07:21:14;100031.19;;;9.35;76.18
51081;BME280;37130;55.670;37.596;2022-10-22T07:23:42;100034.75;;;9.34;75.83
51081;BME280;37130;55.670;37.596;2022-10-22T07:26:10;100036.03;;;9.22;75.62
51081;BME280;37130;55.670;37.596;2022-10-22T07:28:38;100038.78;;;9.19;75.55
51081;BME280;37130;55.670;37.596;2022-10-22T07:31:07;100041.16;;;9.27;75.68
51081;BME280;37130;55.670;37.596;2022-10-22T07:33:34;100035.84;;;9.28;75.86
51081;BME280;37130;55.670;37.596;2022-10-22T07:36:05;100040.09;;;9.32;75.88
51081;BME280;37130;55.670;37.596;2022-10-22T07:38:32;100035.72;;;9.31;75.80
51081;BME280;37130;55.670;37.596;2022-10-22T07:41:00;100037.38;;;9.35;75.40
51081;BME280;37130;55.670;37.596;2022-10-22T07:43:27;100035.13;;;9.48;75.36
51081;BME280;37130;55.670;37.596;2022-10-22T07:45:54;100039.16;;;9.58;75.23
51081;BME280;37130;55.670;37.596;2022-10-22T07:48:21;100036.22;;;9.66;74.69
51081;BME280;37130;55.670;37.596;2022-10-22T07:50:49;100038.94;;;9.64;74.35
51081;BME280;37130;55.670;37.596;2022-10-22T07:53:16;100038.84;;;9.68;74.20
51081;BME280;37130;55.670;37.596;2022-10-22T07:55:46;99949.31;;;9.33;74.27
51081;BME280;37130;55.670;37.596;2022-10-22T07:58:13;100040.38;;;9.97;73.67
51081;BME280;37130;55.670;37.596;2022-10-22T08:00:40;100040.91;;;10.06;73.65
51081;BME280;37130;55.670;37.596;2022-10-22T08:03:08;100042.66;;;10.06;73.28
51081;BME280;37130;55.670;37.596;2022-10-22T08:05:36;100038.47;;;10.00;73.40
51081;BME280;37130;55.670;37.596;2022-10-22T08:08:05;100044.34;;;9.85;73.20
51081;BME280;37130;55.670;37.596;2022-10-22T08:10:32;100040.22;;;9.78;72.57
51081;BME280;37130;55.670;37.596;2022-10-22T08:13:00;100049.94;;;9.77;72.78
51081;BME280;37130;55.670;37.596;2022-10-22T08:15:27;100036.63;;;9.79;72.67
51081;BME280;37130;55.670;37.596;2022-10-22T08:17:54;100035.78;;;9.78;72.65
51081;BME280;37130;55.670;37.596;2022-10-22T08:20:21;100027.81;;;9.80;72.46
51081;BME280;37130;55.670;37.596;2022-10-22T08:22:49;100039.84;;;9.87;72.18
51081;BME280;37130;55.670;37.596;2022-10-22T08:25:16;100036.53;;;9.82;71.15
51081;BME280;37130;55.670;37.596;2022-10-22T08:27:44;100039.25;;;9.80;71.77
51081;BME280;37130;55.670;37.596;2022-10-22T08:30:11;100034.06;;;9.77;72.10
51081;BME280;37130;55.670;37.596;2022-10-22T08:32:39;100033.13;;;9.78;71.99
51081;BME280;37130;55.670;37.596;2022-10-22T08:35:06;100037.56;;;9.78;71.64
51081;BME280;37130;55.670;37.596;2022-10-22T08:37:33;100035.13;;;9.72;71.38
51081;BME280;37130;55.670;37.596;2022-10-22T08:40:00;100036.19;;;9.68;72.04
51081;BME280;37130;55.670;37.596;2022-10-22T08:42:33;100038.06;;;9.64;71.74
51081;BME280;37130;55.670;37.596;2022-10-22T08:50:11;100044.13;;;9.42;72.32
51081;BME280;37130;55.670;37.596;2022-10-22T08:52:40;100038.25;;;9.34;72.12
51081;BME280;37130;55.670;37.596;2022-10-22T08:55:13;100037.69;;;9.26;71.70
51081;BME280;37130;55.670;37.596;2022-10-22T08:57:50;100043.06;;;9.23;71.24
51081;BME280;37130;55.670;37.596;2022-10-22T09:00:34;100038.75;;;9.20;71.77
51081;BME280;37130;55.670;37.596;2022-10-22T09:08:15;100039.13;;;9.10;72.42
51081;BME280;37130;55.670;37.596;2022-10-22T09:10:47;100045.97;;;9.15;71.84
51081;BME280;37130;55.670;37.596;2022-10-22T09:13:16;100041.56;;;9.16;72.07
51081;BME280;37130;55.670;37.596;2022-10-22T09:15:45;100041.56;;;9.16;71.40
51081;BME280;37130;55.670;37.596;2022-10-22T09:20:58;100032.91;;;9.11;71.88
51081;BME280;37130;55.670;37.596;2022-10-22T09:23:32;100032.22;;;9.06;71.63
51081;BME280;37130;55.670;37.596;2022-10-22T09:26:03;100028.81;;;9.02;71.81
51081;BME280;37130;55.670;37.596;2022-10-22T09:28:34;100028.16;;;8.95;71.35
51081;BME280;37130;55.670;37.596;2022-10-22T09:31:04;100031.72;;;8.94;71.62
51081;BME280;37130;55.670;37.596;2022-10-22T09:33:34;100030.78;;;8.95;71.87
51081;BME280;37130;55.670;37.596;2022-10-22T09:36:01;100030.69;;;8.98;71.69
51081;BME280;37130;55.670;37.596;2022-10-22T09:38:31;100034.22;;;8.99;71.80
51081;BME280;37130;55.670;37.596;2022-10-22T09:40:59;100031.16;;;8.85;71.80
51081;BME280;37130;55.670;37.596;2022-10-22T09:43:29;100033.94;;;8.80;71.39
51081;BME280;37130;55.670;37.596;2022-10-22T09:46:00;100031.28;;;8.82;71.43
51081;BME280;37130;55.670;37.596;2022-10-22T09:50:58;100031.13;;;8.86;71.92
51081;BME280;37130;55.670;37.596;2022-10-22T09:53:28;100032.72;;;8.90;71.43
51081;BME280;37130;55.670;37.596;2022-10-22T09:55:57;100035.19;;;8.96;71.65
51081;BME280;37130;55.670;37.596;2022-10-22T09:58:25;100029.84;;;8.98;71.80
51081;BME280;37130;55.670;37.596;2022-10-22T10:00:53;100029.66;;;9.04;71.21
51081;BME280;37130;55.670;37.596;2022-10-22T10:03:22;100024.28;;;9.06;71.10
51081;BME280;37130;55.670;37.596;2022-10-22T10:05:53;100026.94;;;9.06;71.36
51081;BME280;37130;55.670;37.596;2022-10-22T10:08:22;100019.81;;;9.08;71.47
51081;BME280;37130;55.670;37.596;2022-10-22T10:10:55;100009.13;;;9.11;71.96
51081;BME280;37130;55.670;37.596;2022-10-22T10:15:55;100006.66;;;9.31;71.72
51081;BME280;37130;55.670;37.596;2022-10-22T10:21:38;100013.19;;;9.46;71.01
51081;BME280;37130;55.670;37.596;2022-10-22T10:31:48;99998.06;;;9.50;70.73
51081;BME280;37130;55.670;37.596;2022-10-22T10:34:26;100002.75;;;9.41;71.09
51081;BME280;37130;55.670;37.596;2022-10-22T10:42:20;100002.38;;;9.27;70.95
51081;BME280;37130;55.670;37.596;2022-10-22T10:44:54;99997.34;;;9.21;71.54
51081;BME280;37130;55.670;37.596;2022-10-22T10:49:59;100000.19;;;9.15;70.74
51081;BME280;37130;55.670;37.596;2022-10-22T10:53:06;99992.38;;;9.12;71.16
51081;BME280;37130;55.670;37.596;2022-10-22T10:55:32;99993.97;;;9.16;71.39
51081;BME280;37130;55.670;37.596;2022-10-22T10:58:06;99989.41;;;9.21;71.36
51081;BME280;37130;55.670;37.596;2022-10-22T11:00:41;99994.56;;;9.24;71.25
51081;BME280;37130;55.670;37.596;2022-10-22T11:05:56;99990.09;;;9.26;70.74
51081;BME280;37130;55.670;37.596;2022-10-22T11:08:29;99984.00;;;9.24;70.93
51081;BME280;37130;55.670;37.596;2022-10-22T11:11:02;99988.66;;;9.17;71.63
51081;BME280;37130;55.670;37.596;2022-10-22T11:13:33;99980.88;;;9.13;71.20
51081;BME280;37130;55.670;37.596;2022-10-22T11:16:04;99983.66;;;9.10;70.85
51081;BME280;37130;55.670;37.596;2022-10-22T11:18:36;99975.84;;;9.07;71.16
51081;BME280;37130;55.670;37.596;2022-10-22T11:26:01;99977.00;;;8.98;70.79
51081;BME280;37130;55.670;37.596;2022-10-22T11:31:00;99973.53;;;8.96;70.97
51081;BME280;37130;55.670;37.596;2022-10-22T11:33:36;99976.09;;;8.99;71.25
51081;BME280;37130;55.670;37.596;2022-10-22T11:36:05;99970.69;;;9.02;71.01
51081;BME280;37130;55.670;37.596;2022-10-22T11:38:34;99971.66;;;8.99;71.12
51081;BME280;37130;55.670;37.596;2022-10-22T11:41:11;99970.03;;;8.95;71.34
51081;BME280;37130;55.670;37.596;2022-10-22T11:48:45;99958.06;;;8.85;70.58
51081;BME280;37130;55.670;37.596;2022-10-22T11:51:36;99953.88;;;8.80;70.83
51081;BME280;37130;55.670;37.596;2022-10-22T11:56:51;99951.22;;;8.80;71.30
51081;BME280;37130;55.670;37.596;2022-10-22T11:59:37;99956.41;;;8.83;71.03
51081;BME280;37130;55.670;37.596;2022-10-22T12:02:28;99950.34;;;8.81;71.34
51081;BME280;37130;55.670;37.596;2022-10-22T12:10:19;99957.44;;;8.78;70.84
51081;BME280;37130;55.670;37.596;2022-10-22T12:12:56;99951.34;;;8.76;71.17
51081;BME280;37130;55.670;37.596;2022-10-22T12:15:26;99950.41;;;8.77;70.97
51081;BME280;37130;55.670;37.596;2022-10-22T12:18:00;99944.34;;;8.75;71.25
51081;BME280;37130;55.670;37.596;2022-10-22T12:20:29;99942.56;;;8.76;71.52
51081;BME280;37130;55.670;37.596;2022-10-22T12:22:57;99941.81;;;8.72;71.12
51081;BME280;37130;55.670;37.596;2022-10-22T12:25:25;99933.94;;;8.71;71.50
51081;BME280;37130;55.670;37.596;2022-10-22T12:28:01;99934.69;;;8.74;71.19
51081;BME280;37130;55.670;37.596;2022-10-22T12:30:29;99930.25;;;8.75;71.53
51081;BME280;37130;55.670;37.596;2022-10-22T12:32:57;99932.88;;;8.75;71.46
51081;BME280;37130;55.670;37.596;2022-10-22T12:35:27;99926.72;;;8.76;71.46
51081;BME280;37130;55.670;37.596;2022-10-22T12:37:55;99928.53;;;8.74;71.00
51081;BME280;37130;55.670;37.596;2022-10-22T12:40:26;99924.94;;;8.76;71.35
51081;BME280;37130;55.670;37.596;2022-10-22T12:45:21;99925.19;;;8.69;71.33
51081;BME280;37130;55.670;37.596;2022-10-22T12:47:50;99926.97;;;8.68;71.17
51081;BME280;37130;55.670;37.596;2022-10-22T12:50:18;99921.81;;;8.65;71.31
51081;BME280;37130;55.670;37.596;2022-10-22T12:52:46;99925.34;;;8.64;71.50
51081;BME280;37130;55.670;37.596;2022-10-22T12:55:14;99925.41;;;8.63;71.53
51081;BME280;37130;55.670;37.596;2022-10-22T12:57:42;99922.06;;;8.58;71.09
51081;BME280;37130;55.670;37.596;2022-10-22T13:00:21;99930.22;;;8.51;71.63
51081;BME280;37130;55.670;37.596;2022-10-22T13:02:49;99920.91;;;8.40;71.22
51081;BME280;37130;55.670;37.596;2022-10-22T13:07:50;99917.84;;;8.25;71.73
51081;BME280;37130;55.670;37.596;2022-10-22T13:10:34;99921.50;;;8.21;72.08
51081;BME280;37130;55.670;37.596;2022-10-22T13:13:02;99919.91;;;8.16;72.34
51081;BME280;37130;55.670;37.596;2022-10-22T13:18:03;99908.91;;;8.03;72.70
51081;BME280;37130;55.670;37.596;2022-10-22T13:20:31;99909.00;;;8.00;72.85
51081;BME280;37130;55.670;37.596;2022-10-22T13:23:03;99913.69;;;7.90;72.86
51081;BME280;37130;55.670;37.596;2022-10-22T13:25:31;99913.94;;;7.82;72.84
51081;BME280;37130;55.670;37.596;2022-10-22T13:28:11;99911.53;;;7.75;72.83
51081;BME280;37130;55.670;37.596;2022-10-22T13:30:50;99915.31;;;7.66;73.42
51081;BME280;37130;55.670;37.596;2022-10-22T13:33:22;99911.00;;;7.63;73.27
51081;BME280;37130;55.670;37.596;2022-10-22T13:35:52;99911.16;;;7.59;73.50
51081;BME280;37130;55.670;37.596;2022-10-22T13:38:21;99907.69;;;7.57;73.82
51081;BME280;37130;55.670;37.596;2022-10-22T13:40:48;99912.09;;;7.56;73.24
51081;BME280;37130;55.670;37.596;2022-10-22T13:43:15;99912.16;;;7.55;73.46
51081;BME280;37130;55.670;37.596;2022-10-22T13:45:44;99915.59;;;7.57;73.88
51081;BME280;37130;55.670;37.596;2022-10-22T13:48:16;99911.44;;;7.50;73.49
51081;BME280;37130;55.670;37.596;2022-10-22T13:50:45;99909.78;;;7.45;74.09
51081;BME280;37130;55.670;37.596;2022-10-22T13:53:14;99908.09;;;7.43;73.68
51081;BME280;37130;55.670;37.596;2022-10-22T13:55:44;99895.22;;;7.34;73.77
51081;BME280;37130;55.670;37.596;2022-10-22T13:58:21;99897.88;;;7.32;74.13
51081;BME280;37130;55.670;37.596;2022-10-22T14:00:51;99902.19;;;7.36;74.09
51081;BME280;37130;55.670;37.596;2022-10-22T14:03:22;99896.66;;;7.44;74.15
51081;BME280;37130;55.670;37.596;2022-10-22T14:05:50;99899.28;;;7.44;73.88
51081;BME280;37130;55.670;37.596;2022-10-22T14:08:18;99899.38;;;7.41;74.42
51081;BME280;37130;55.670;37.596;2022-10-22T14:10:45;99890.75;;;7.36;74.45
51081;BME280;37130;55.670;37.596;2022-10-22T14:13:13;99891.75;;;7.32;74.37
51081;BME280;37130;55.670;37.596;2022-10-22T14:15:41;99894.50;;;7.29;74.38
51081;BME280;37130;55.670;37.596;2022-10-22T14:18:10;99893.59;;;7.28;74.19
51081;BME280;37130;55.670;37.596;2022-10-22T14:20:38;99897.13;;;7.29;74.54
51081;BME280;37130;55.670;37.596;2022-10-22T14:23:12;99905.28;;;7.19;74.86
51081;BME280;37130;55.670;37.596;2022-10-22T14:25:40;99897.28;;;7.22;74.88
51081;BME280;37130;55.670;37.596;2022-10-22T14:28:10;99894.56;;;7.25;75.05
51081;BME280;37130;55.670;37.596;2022-10-22T14:30:38;99903.38;;;7.24;75.05
51081;BME280;37130;55.670;37.596;2022-10-22T14:33:12;99899.97;;;7.21;74.87
51081;BME280;37130;55.670;37.596;2022-10-22T14:35:40;99899.91;;;7.22;75.12
51081;BME280;37130;55.670;37.596;2022-10-22T14:38:07;99899.03;;;7.23;75.10
51081;BME280;37130;55.670;37.596;2022-10-22T14:40:34;99897.25;;;7.24;74.95
51081;BME280;37130;55.670;37.596;2022-10-22T14:43:04;99898.16;;;7.23;75.25
51081;BME280;37130;55.670;37.596;2022-10-22T14:45:31;99895.59;;;7.20;74.91
51081;BME280;37130;55.670;37.596;2022-10-22T14:47:58;99900.97;;;7.17;75.28